• Join FlightAware (Why Join?)
  • Login
  • US Flag 
09:03PM EST


 

Airport Tracker/Info


-or-


 

Live Flight TrackerFlight Track Log ✈ ASQ5975 ✈ 21-Sep-2013 ✈ KDEN - KHSV

Flight Track Log - Related Links

Times and Time Zones

All times are in EDT time to prevent confusion due to time zone crossing. See the ASQ5975 flight status page for this flight to view local times or setup timezone preferences in your user account.

Time Position Orientation Groundspeed Altitude Reporting Facility
EDT Latitude Longitude Course Direction KTS MPH feet Rate Location/Type
03:11PM 39.8667 -104.5667 95° East 186 214 6,900  Level Denver TRACON
03:12PM 39.8500 -104.5000 108° East 240 276 7,700 1,200 Climbing Denver TRACON
03:13PM 39.7700 -104.2174 90° East  Level Estimated
03:13PM 39.8214 -104.4256 117° Southeast 273 314 9,100  Level Denver Center
03:14PM 39.7390 -104.0657 108° East  Level Estimated
03:14PM 39.8081 -104.3236 100° East 286 329 11,100  Level Denver Center
03:15PM 39.7079 -103.9142 95° East  Level Estimated
03:15PM 39.7939 -104.2017 99° East 316 364 12,300  Level Denver Center
03:16PM 39.6765 -103.7628 95° East  Level Estimated
03:16PM 39.7792 -104.0750 99° East 353 406 13,100  Level Denver Center
03:17PM 39.7644 -103.9389 98° East 380 437 14,300 1,200 Climbing Denver Center
03:18PM 39.7414 -103.7925 102° East 384 442 15,600 1,200 Climbing Denver Center
03:19PM 39.7061 -103.6622 109° East 375 432 16,900 1,140 Climbing Denver Center
03:20PM 39.6706 -103.5294 109° East 384 442 18,000 1,080 Climbing Denver Center
03:21PM 39.6353 -103.3944 109° East 393 452 19,200 1,080 Climbing Denver Center
03:22PM 39.5986 -103.2583 109° East 399 459 20,300 1,080 Climbing Denver Center
03:23PM 39.5614 -103.1225 110° East 400 460 21,500 1,260 Climbing Denver Center
03:24PM 39.5164 -102.9581 109° East 404 465 23,000 1,200 Climbing Denver Center
03:25PM 39.4781 -102.8197 110° East 407 468 24,100 1,080 Climbing Denver Center
03:26PM 39.4408 -102.6814 109° East 409 471 25,300 1,140 Climbing Denver Center
03:27PM 39.4028 -102.5444 110° East 406 467 26,500 1,140 Climbing Denver Center
03:28PM 39.3633 -102.4078 110° East 405 466 27,700 1,200 Climbing Denver Center
03:29PM 39.3211 -102.2528 109° East 406 467 29,100 1,200 Climbing Denver Center
03:30PM 39.2839 -102.1231 110° East 403 464 30,200 1,020 Climbing Denver Center
03:31PM 39.2472 -101.9922 110° East 405 466 31,300 1,200 Climbing Denver Center
03:32PM 39.2039 -101.8400 110° East 404 465 32,700 1,200 Climbing Denver Center
03:33PM 39.1661 -101.7056 110° East 402 463 33,800 1,080 Climbing Denver Center
03:34PM 39.1236 -101.5578 110° East 396 456 35,000 540 Climbing Denver Center
03:35PM 39.0869 -101.4322 111° Southeast 394 453 35,000  Level Denver Center
03:36PM 39.0475 -101.2989 111° Southeast 409 471 35,000  Level Denver Center
03:37PM 39.0000 -101.1381 111° Southeast 432 497 35,000  Level Denver Center
03:38PM 38.9497 -100.9650 110° East 455 524 35,000  Level Denver Center
03:39PM 38.9056 -100.8139 111° Southeast 470 541 35,000  Level Denver Center
03:40PM 38.8594 -100.6594 111° Southeast 480 552 35,000  Level Denver Center
03:41PM 38.8058 -100.4797 111° Southeast 483 556 35,000  Level Denver Center
03:42PM 38.7600 -100.3286 111° Southeast 478 550 35,000  Level Denver Center
03:43PM 38.7283 -100.2247 111° Southeast 477 549 35,000  Level Kansas City Center
03:44PM 38.6747 -100.0492 111° Southeast 475 547 35,000  Level Kansas City Center
03:45PM 38.6278 -99.8981 112° Southeast 475 547 35,000  Level Kansas City Center
03:46PM 38.5808 -99.7467 112° Southeast 476 548 35,000  Level Kansas City Center
03:47PM 38.5269 -99.5719 111° Southeast 474 545 35,000  Level Kansas City Center
03:48PM 38.4783 -99.4139 111° Southeast 477 549 35,000  Level Kansas City Center
03:49PM 38.4283 -99.2564 112° Southeast 478 550 35,000  Level Kansas City Center
03:50PM 38.3781 -99.0983 112° Southeast 480 552 35,000  Level Kansas City Center
03:51PM 38.3289 -98.9403 112° Southeast 481 554 35,000  Level Kansas City Center
03:52PM 38.2786 -98.7814 112° Southeast 483 556 35,000  Level Kansas City Center
03:53PM 38.2289 -98.6228 112° Southeast 482 555 35,000  Level Kansas City Center
03:54PM 38.1775 -98.4642 112° Southeast 485 558 35,000  Level Kansas City Center
03:55PM 38.1167 -98.2739 112° Southeast 484 557 35,000  Level Kansas City Center
03:56PM 38.0703 -98.1331 113° Southeast 485 558 35,000  Level Kansas City Center
03:57PM 38.0172 -97.9731 113° Southeast 488 562 35,000  Level Kansas City Center
03:58PM 37.9564 -97.7883 113° Southeast 486 559 35,000  Level Kansas City Center
03:59PM 37.9042 -97.6286 112° Southeast 488 562 35,000  Level Kansas City Center
04:01PM 37.8489 -97.4689 114° Southeast 488 562 35,000  Level Kansas City Center
04:02PM 37.7981 -97.3108 112° Southeast 486 559 35,000  Level Kansas City Center
04:03PM 37.7453 -97.1547 113° Southeast 484 557 35,000  Level Kansas City Center
04:04PM 37.6928 -97.0011 113° Southeast 479 551 35,000  Level Kansas City Center
04:05PM 37.6408 -96.8478 113° Southeast 476 548 35,000  Level Kansas City Center
04:06PM 37.5881 -96.6956 114° Southeast 474 545 35,000  Level Kansas City Center
04:07PM 37.5367 -96.5406 113° Southeast 476 548 35,000  Level Kansas City Center
04:08PM 37.4736 -96.3622 114° Southeast 480 552 35,000  Level Kansas City Center
04:09PM 37.4203 -96.2075 113° Southeast 480 552 35,000  Level Kansas City Center
04:10PM 37.3669 -96.0533 113° Southeast 480 552 35,000  Level Kansas City Center
04:11PM 37.3128 -95.9006 114° Southeast 478 550 35,000  Level Kansas City Center
04:12PM 37.2589 -95.7486 114° Southeast 475 547 35,000  Level Kansas City Center
04:13PM 37.2050 -95.5961 114° Southeast 475 547 35,000  Level Kansas City Center
04:14PM 37.1511 -95.4453 114° Southeast 473 544 35,000  Level Kansas City Center
04:15PM 37.0853 -95.2636 114° Southeast 474 545 35,000  Level Kansas City Center
04:16PM 37.0308 -95.1125 114° Southeast 473 544 35,000  Level Kansas City Center
04:17PM 36.9747 -94.9625 115° Southeast 473 544 35,000  Level Kansas City Center
04:18PM 36.9208 -94.8103 114° Southeast 475 547 35,000  Level Kansas City Center
04:19PM 36.8642 -94.6614 115° Southeast 473 544 35,000  Level Kansas City Center
04:20PM 36.8081 -94.5106 115° Southeast 475 547 35,000  Level Kansas City Center
04:21PM 36.7525 -94.3617 115° Southeast 473 544 35,000  Level Kansas City Center
04:22PM 36.6972 -94.2128 115° Southeast 472 543 35,000  Level Kansas City Center
04:23PM 36.6411 -94.0622 115° Southeast 474 545 35,000  Level Kansas City Center
04:24PM 36.5844 -93.9125 115° Southeast 476 548 35,000  Level Kansas City Center
04:25PM 36.5253 -93.7567 115° Southeast 476 548 35,000  Level Kansas City Center
04:26PM 36.4703 -93.6078 115° Southeast 475 547 35,000  Level Kansas City Center
04:27PM 36.4133 -93.4597 116° Southeast 475 547 35,000  Level Kansas City Center
04:28PM 36.3433 -93.2786 116° Southeast 472 543 35,000  Level Memphis Center
04:29PM 36.2883 -93.1325 115° Southeast 472 543 35,000  Level Memphis Center
04:30PM 36.2331 -92.9867 115° Southeast 472 543 35,000  Level Memphis Center
04:31PM 36.1778 -92.8383 115° Southeast 472 543 35,000  Level Memphis Center
04:32PM 36.1203 -92.6925 116° Southeast 472 543 35,000  Level Memphis Center
04:33PM 36.0622 -92.5447 116° Southeast 472 543 35,000  Level Memphis Center
04:34PM 36.0064 -92.3994 115° Southeast 472 543 35,000  Level Memphis Center
04:35PM 35.9461 -92.2519 117° Southeast 472 543 35,000  Level Memphis Center
04:36PM 35.8858 -92.1069 117° Southeast 472 543 35,000  Level Memphis Center
04:37PM 35.8294 -91.9597 115° Southeast 472 543 35,000  Level Memphis Center
04:38PM 35.7644 -91.8000 117° Southeast 467 537 35,000  Level Memphis Center
04:39PM 35.7078 -91.6558 116° Southeast 472 543 35,000  Level Memphis Center
04:40PM 35.6489 -91.5042 116° Southeast 472 543 35,000  Level Memphis Center
04:41PM 35.5936 -91.3731 117° Southeast 472 543 35,000  Level Memphis Center
04:42PM 35.5342 -91.2244 116° Southeast 478 550 35,000  Level Memphis Center
04:43PM 35.4789 -91.0761 115° Southeast 478 550 35,000  Level Memphis Center
04:44PM 35.4442 -90.9100 104° East 491 565 35,000  Level Memphis Center
04:45PM 35.4094 -90.7264 103° East 491 565 35,000  Level Memphis Center
04:46PM 35.3828 -90.5633 101° East 491 565 35,000  Level Memphis Center
04:47PM 35.3517 -90.3978 103° East 491 565 35,000  Level Memphis Center
04:48PM 35.3222 -90.2272 102° East 491 565 35,000  Level Memphis Center
04:49PM 35.2886 -90.0619 104° East 496 571 35,000  Level Memphis Center
04:50PM 35.2567 -89.8917 103° East 501 577 35,000  Level Memphis Center
04:51PM 35.2269 -89.7394 103° East 509 586 35,000  Level Memphis Center
04:52PM 35.1967 -89.5694 102° East 509 586 35,000  Level Memphis Center
04:53PM 35.1600 -89.3994 105° East 509 586 35,000  Level Memphis Center
04:54PM 35.1272 -89.2297 103° East 509 586 35,000  Level Memphis Center
04:55PM 35.0881 -89.0450 104° East 509 586 35,000 -660 Level Memphis Center
04:56PM 35.0547 -88.8756 103° East 509 586 33,700 -1,680 Descending Memphis Center
04:57PM 35.0214 -88.7064 103° East 509 586 31,700 -2,100 Descending Memphis Center
04:58PM 34.9856 -88.5422 105° East 504 580 29,600 -2,100 Descending Memphis Center
04:59PM 34.9583 -88.3983 103° East 494 568 27,500 -2,400 Descending Memphis Center
05:00PM 34.9244 -88.2347 104° East 489 563 24,900 -2,700 Descending Memphis Center
05:01PM 34.8858 -88.0533 104° East 503 579 22,100 -2,760 Descending Memphis Center
05:02PM 34.8558 -87.9100 104° East 458 527 19,400 -2,640 Descending Memphis Center
05:03PM 34.8306 -87.7867 104° East 433 498 16,900 -2,460 Descending Memphis Center
05:04PM 34.8025 -87.6508 104° East 416 479 14,500 3,540 Descending Memphis Center
05:05PM 34.7744 -87.5178 104° East 410 472 24,000 -1,800 Climbing Memphis Center
05:06PM 34.7464 -87.3872 105° East 405 466 11,000 -6,600 Descending Memphis Center
05:07PM 34.7183 -87.2644 106° East 393 452 10,900 -540 Descending Memphis Center
05:08PM 34.6947 -87.1517 104° East 365 420 10,000 -1,260 Descending Memphis Center
05:09PM 34.6425 -87.0731 129° Southeast 321 369 8,400 -1,740 Descending Memphis Center
05:10PM 34.5858 -86.9869 129° Southeast 302 348 6,600 -1,800 Descending Memphis Center
05:11PM 34.5219 -86.9364 147° Southeast 273 314 4,900 -1,680 Descending Memphis Center
05:12PM 34.4444 -86.9219 171° South 273 314 3,300 -960 Descending Memphis Center
05:13PM 34.4092 -86.8606 125° Southeast 238 274 3,000 -180 Descending Memphis Center
05:14PM 34.4283 -86.7942 71° East 166 191 3,000  Level Memphis Center
05:15PM 34.4886 -86.7842 North 134 154 3,000 -480 Level Memphis Center
05:16PM 34.5428 -86.7844 360° North 162 186 2,100 -900 Descending Memphis Center
05:17PM 34.5844 -86.7850 359° North 157 181 1,300 -660 Descending Memphis Center
05:18PM 34.6136 -86.7839 North 147 169 800 -540 Descending Memphis Center